EGPI/ILY METAR and TAF weather

Enter ICAO airport designator
Station Type Date Time Source
EGPI METAR 2019/12/06 03:50 UTC NOAA

EGPI 060350Z AUTO 22015KT 190V250 2000 BR BKN003/// 11/11 Q0994 RERA


Station Type Date Time Source
EGPI Decoded METAR 2019/12/06 03:50 UTC NOAA

Islay, United Kingdom (EGPI) 55-40-55N 006-15-24W
Dec 05, 2019 - 10:50 PM EST / 2019.12.06 0350 UTC
Wind: from the SW (220 degrees) at 17 MPH (15 KT) (direction variable):0
Visibility: 1 mile(s):0
Sky conditions: mostly cloudy
Weather: mist
Temperature: 51 F (11 C)
Dew Point: 51 F (11 C)
Relative Humidity: 100%
Pressure (altimeter): 29.35 in. Hg (0994 hPa)
ob: EGPI 060350Z AUTO 22015KT 190V250 2000 BR BKN003/// 11/11 Q0994 RERA
cycle: 4

Station Type Date Time Source
EGPI TAF UTC NOAA

Error!

Example: see airport list